sensor_id;sensor_type;location;lat;lon;timestamp;P1;durP1;ratioP1;P2;durP2;ratioP2
40284;SDS011;25997;50.214;19.354;2024-01-30T00:02:35;66.07;;;47.33;;
40284;SDS011;25997;50.214;19.354;2024-01-30T00:05:37;70.40;;;47.90;;
40284;SDS011;25997;50.214;19.354;2024-01-30T00:08:40;62.63;;;44.08;;
40284;SDS011;25997;50.214;19.354;2024-01-30T00:11:42;71.80;;;47.05;;
40284;SDS011;25997;50.214;19.354;2024-01-30T00:14:45;67.68;;;46.70;;
40284;SDS011;25997;50.214;19.354;2024-01-30T00:17:49;64.88;;;45.22;;
40284;SDS011;25997;50.214;19.354;2024-01-30T00:20:52;67.28;;;47.53;;
40284;SDS011;25997;50.214;19.354;2024-01-30T00:23:55;62.55;;;47.63;;
40284;SDS011;25997;50.214;19.354;2024-01-30T00:26:57;69.47;;;47.17;;
40284;SDS011;25997;50.214;19.354;2024-01-30T00:30:00;63.58;;;46.60;;
40284;SDS011;25997;50.214;19.354;2024-01-30T00:33:04;61.05;;;45.65;;
40284;SDS011;25997;50.214;19.354;2024-01-30T00:36:07;62.33;;;42.75;;
40284;SDS011;25997;50.214;19.354;2024-01-30T00:39:11;60.13;;;41.13;;
40284;SDS011;25997;50.214;19.354;2024-01-30T00:42:13;56.10;;;40.20;;
40284;SDS011;25997;50.214;19.354;2024-01-30T00:45:16;54.42;;;39.00;;
40284;SDS011;25997;50.214;19.354;2024-01-30T00:48:20;56.20;;;38.92;;
40284;SDS011;25997;50.214;19.354;2024-01-30T00:51:22;57.03;;;39.20;;
40284;SDS011;25997;50.214;19.354;2024-01-30T00:54:25;58.13;;;41.13;;
40284;SDS011;25997;50.214;19.354;2024-01-30T00:57:28;56.25;;;38.95;;
40284;SDS011;25997;50.214;19.354;2024-01-30T01:00:30;59.63;;;39.88;;
40284;SDS011;25997;50.214;19.354;2024-01-30T01:03:35;56.28;;;41.35;;
40284;SDS011;25997;50.214;19.354;2024-01-30T01:06:37;56.63;;;40.13;;
40284;SDS011;25997;50.214;19.354;2024-01-30T01:09:39;59.33;;;40.60;;
40284;SDS011;25997;50.214;19.354;2024-01-30T01:12:42;61.97;;;41.75;;
40284;SDS011;25997;50.214;19.354;2024-01-30T01:15:44;49.40;;;37.22;;
40284;SDS011;25997;50.214;19.354;2024-01-30T01:18:48;55.63;;;38.22;;
40284;SDS011;25997;50.214;19.354;2024-01-30T01:21:51;61.88;;;40.38;;
40284;SDS011;25997;50.214;19.354;2024-01-30T01:24:53;53.22;;;36.83;;
40284;SDS011;25997;50.214;19.354;2024-01-30T01:27:56;56.10;;;38.75;;
40284;SDS011;25997;50.214;19.354;2024-01-30T01:30:58;56.15;;;40.33;;
40284;SDS011;25997;50.214;19.354;2024-01-30T01:34:07;53.25;;;40.08;;
40284;SDS011;25997;50.214;19.354;2024-01-30T01:37:09;52.67;;;36.92;;
40284;SDS011;25997;50.214;19.354;2024-01-30T01:40:11;52.53;;;37.25;;
40284;SDS011;25997;50.214;19.354;2024-01-30T01:43:14;48.15;;;34.63;;
40284;SDS011;25997;50.214;19.354;2024-01-30T01:46:17;50.00;;;35.65;;
40284;SDS011;25997;50.214;19.354;2024-01-30T01:49:22;49.83;;;36.70;;
40284;SDS011;25997;50.214;19.354;2024-01-30T01:52:26;59.47;;;39.58;;
40284;SDS011;25997;50.214;19.354;2024-01-30T01:55:28;50.28;;;35.75;;
40284;SDS011;25997;50.214;19.354;2024-01-30T01:58:32;55.15;;;37.13;;
40284;SDS011;25997;50.214;19.354;2024-01-30T02:01:35;52.72;;;36.17;;
40284;SDS011;25997;50.214;19.354;2024-01-30T02:04:40;51.67;;;34.90;;
40284;SDS011;25997;50.214;19.354;2024-01-30T02:07:43;49.53;;;33.38;;
40284;SDS011;25997;50.214;19.354;2024-01-30T02:10:46;47.83;;;33.47;;
40284;SDS011;25997;50.214;19.354;2024-01-30T02:13:48;47.67;;;32.42;;
40284;SDS011;25997;50.214;19.354;2024-01-30T02:16:51;49.17;;;33.22;;
40284;SDS011;25997;50.214;19.354;2024-01-30T02:19:55;42.75;;;29.80;;
40284;SDS011;25997;50.214;19.354;2024-01-30T02:22:59;43.95;;;29.42;;
40284;SDS011;25997;50.214;19.354;2024-01-30T02:26:03;46.00;;;32.13;;
40284;SDS011;25997;50.214;19.354;2024-01-30T02:29:05;47.25;;;33.05;;
40284;SDS011;25997;50.214;19.354;2024-01-30T02:32:08;40.72;;;31.27;;
40284;SDS011;25997;50.214;19.354;2024-01-30T02:35:10;44.78;;;31.33;;
40284;SDS011;25997;50.214;19.354;2024-01-30T02:38:15;46.65;;;31.20;;
40284;SDS011;25997;50.214;19.354;2024-01-30T02:41:17;44.40;;;31.48;;
40284;SDS011;25997;50.214;19.354;2024-01-30T02:44:20;42.45;;;29.90;;
40284;SDS011;25997;50.214;19.354;2024-01-30T02:47:22;39.88;;;28.83;;
40284;SDS011;25997;50.214;19.354;2024-01-30T02:50:24;43.92;;;30.00;;
40284;SDS011;25997;50.214;19.354;2024-01-30T02:53:28;43.15;;;31.88;;
40284;SDS011;25997;50.214;19.354;2024-01-30T02:56:31;44.10;;;30.08;;
40284;SDS011;25997;50.214;19.354;2024-01-30T02:59:33;43.28;;;28.50;;
40284;SDS011;25997;50.214;19.354;2024-01-30T03:02:36;41.85;;;28.52;;
40284;SDS011;25997;50.214;19.354;2024-01-30T03:05:39;37.88;;;27.42;;
40284;SDS011;25997;50.214;19.354;2024-01-30T03:08:42;41.63;;;29.15;;
40284;SDS011;25997;50.214;19.354;2024-01-30T03:11:45;38.25;;;26.92;;
40284;SDS011;25997;50.214;19.354;2024-01-30T03:14:47;38.65;;;26.13;;
40284;SDS011;25997;50.214;19.354;2024-01-30T03:17:51;34.90;;;26.63;;
40284;SDS011;25997;50.214;19.354;2024-01-30T03:20:53;36.90;;;25.65;;
40284;SDS011;25997;50.214;19.354;2024-01-30T03:23:57;40.63;;;27.58;;
40284;SDS011;25997;50.214;19.354;2024-01-30T03:27:00;41.65;;;27.58;;
40284;SDS011;25997;50.214;19.354;2024-01-30T03:30:02;36.90;;;25.85;;
40284;SDS011;25997;50.214;19.354;2024-01-30T03:33:05;40.17;;;26.17;;
40284;SDS011;25997;50.214;19.354;2024-01-30T03:36:08;38.33;;;25.35;;
40284;SDS011;25997;50.214;19.354;2024-01-30T03:39:12;32.38;;;23.92;;
40284;SDS011;25997;50.214;19.354;2024-01-30T03:42:14;34.35;;;24.20;;
40284;SDS011;25997;50.214;19.354;2024-01-30T03:45:17;36.75;;;25.70;;
40284;SDS011;25997;50.214;19.354;2024-01-30T03:48:20;36.45;;;24.80;;
40284;SDS011;25997;50.214;19.354;2024-01-30T03:51:23;37.30;;;24.45;;
40284;SDS011;25997;50.214;19.354;2024-01-30T03:54:27;36.10;;;22.50;;
40284;SDS011;25997;50.214;19.354;2024-01-30T03:57:29;36.75;;;23.67;;
40284;SDS011;25997;50.214;19.354;2024-01-30T04:00:32;33.10;;;23.17;;
40284;SDS011;25997;50.214;19.354;2024-01-30T04:03:34;31.00;;;22.95;;
40284;SDS011;25997;50.214;19.354;2024-01-30T04:06:36;34.50;;;24.90;;
40284;SDS011;25997;50.214;19.354;2024-01-30T04:09:40;33.03;;;23.10;;
40284;SDS011;25997;50.214;19.354;2024-01-30T04:12:42;31.48;;;24.13;;
40284;SDS011;25997;50.214;19.354;2024-01-30T04:15:45;35.10;;;22.00;;
40284;SDS011;25997;50.214;19.354;2024-01-30T04:18:47;32.50;;;23.48;;
40284;SDS011;25997;50.214;19.354;2024-01-30T04:21:50;35.40;;;23.33;;
40284;SDS011;25997;50.214;19.354;2024-01-30T04:24:54;34.83;;;24.15;;
40284;SDS011;25997;50.214;19.354;2024-01-30T04:27:56;36.50;;;24.50;;
40284;SDS011;25997;50.214;19.354;2024-01-30T04:30:59;35.28;;;25.95;;
40284;SDS011;25997;50.214;19.354;2024-01-30T04:34:01;33.80;;;25.90;;
40284;SDS011;25997;50.214;19.354;2024-01-30T04:37:04;34.13;;;24.08;;
40284;SDS011;25997;50.214;19.354;2024-01-30T04:40:08;38.25;;;24.42;;
40284;SDS011;25997;50.214;19.354;2024-01-30T04:43:11;33.38;;;22.85;;
40284;SDS011;25997;50.214;19.354;2024-01-30T04:46:13;31.60;;;22.40;;
40284;SDS011;25997;50.214;19.354;2024-01-30T04:49:15;37.45;;;23.35;;
40284;SDS011;25997;50.214;19.354;2024-01-30T04:52:18;30.67;;;22.15;;
40284;SDS011;25997;50.214;19.354;2024-01-30T04:55:22;28.83;;;19.85;;
40284;SDS011;25997;50.214;19.354;2024-01-30T04:58:24;34.50;;;21.40;;
40284;SDS011;25997;50.214;19.354;2024-01-30T05:01:26;33.65;;;21.98;;
40284;SDS011;25997;50.214;19.354;2024-01-30T05:04:29;34.55;;;22.75;;
40284;SDS011;25997;50.214;19.354;2024-01-30T05:07:31;33.83;;;20.60;;
40284;SDS011;25997;50.214;19.354;2024-01-30T05:10:35;33.17;;;22.70;;
40284;SDS011;25997;50.214;19.354;2024-01-30T05:13:37;29.25;;;20.90;;
40284;SDS011;25997;50.214;19.354;2024-01-30T05:16:40;34.10;;;21.58;;
40284;SDS011;25997;50.214;19.354;2024-01-30T05:19:43;28.92;;;21.02;;
40284;SDS011;25997;50.214;19.354;2024-01-30T05:22:46;31.73;;;21.55;;
40284;SDS011;25997;50.214;19.354;2024-01-30T05:25:49;27.80;;;20.48;;
40284;SDS011;25997;50.214;19.354;2024-01-30T05:28:52;27.90;;;19.20;;
40284;SDS011;25997;50.214;19.354;2024-01-30T05:31:54;29.30;;;20.63;;
40284;SDS011;25997;50.214;19.354;2024-01-30T05:34:57;30.00;;;21.73;;
40284;SDS011;25997;50.214;19.354;2024-01-30T05:37:59;35.83;;;22.13;;
40284;SDS011;25997;50.214;19.354;2024-01-30T05:41:03;33.88;;;22.08;;
40284;SDS011;25997;50.214;19.354;2024-01-30T05:44:05;30.80;;;22.98;;
40284;SDS011;25997;50.214;19.354;2024-01-30T05:47:08;44.03;;;29.60;;
40284;SDS011;25997;50.214;19.354;2024-01-30T05:50:10;46.28;;;32.10;;
40284;SDS011;25997;50.214;19.354;2024-01-30T05:53:13;44.25;;;35.08;;
40284;SDS011;25997;50.214;19.354;2024-01-30T05:56:16;45.15;;;30.77;;
40284;SDS011;25997;50.214;19.354;2024-01-30T05:59:19;41.72;;;34.08;;
40284;SDS011;25997;50.214;19.354;2024-01-30T06:02:21;47.42;;;38.53;;
40284;SDS011;25997;50.214;19.354;2024-01-30T06:05:24;57.22;;;47.42;;
40284;SDS011;25997;50.214;19.354;2024-01-30T06:08:26;35.42;;;25.58;;
40284;SDS011;25997;50.214;19.354;2024-01-30T06:11:30;35.60;;;23.63;;
40284;SDS011;25997;50.214;19.354;2024-01-30T06:14:32;35.35;;;27.02;;
40284;SDS011;25997;50.214;19.354;2024-01-30T06:17:35;37.35;;;25.67;;
40284;SDS011;25997;50.214;19.354;2024-01-30T06:20:37;35.38;;;23.92;;
40284;SDS011;25997;50.214;19.354;2024-01-30T06:23:39;33.67;;;23.88;;
40284;SDS011;25997;50.214;19.354;2024-01-30T06:26:43;31.58;;;23.73;;
40284;SDS011;25997;50.214;19.354;2024-01-30T06:29:46;44.33;;;33.80;;
40284;SDS011;25997;50.214;19.354;2024-01-30T06:32:48;36.90;;;26.77;;
40284;SDS011;25997;50.214;19.354;2024-01-30T06:35:51;39.90;;;28.35;;
40284;SDS011;25997;50.214;19.354;2024-01-30T06:38:53;40.45;;;30.27;;
40284;SDS011;25997;50.214;19.354;2024-01-30T06:41:57;46.17;;;31.08;;
40284;SDS011;25997;50.214;19.354;2024-01-30T06:44:59;46.80;;;38.95;;
40284;SDS011;25997;50.214;19.354;2024-01-30T06:48:02;49.35;;;44.22;;
40284;SDS011;25997;50.214;19.354;2024-01-30T06:51:04;47.58;;;42.28;;
40284;SDS011;25997;50.214;19.354;2024-01-30T06:54:07;46.25;;;37.35;;
40284;SDS011;25997;50.214;19.354;2024-01-30T06:57:10;47.95;;;35.22;;
40284;SDS011;25997;50.214;19.354;2024-01-30T07:00:15;39.38;;;29.15;;
40284;SDS011;25997;50.214;19.354;2024-01-30T07:03:20;42.72;;;28.27;;
40284;SDS011;25997;50.214;19.354;2024-01-30T07:06:22;69.13;;;50.40;;
40284;SDS011;25997;50.214;19.354;2024-01-30T07:09:25;42.20;;;35.53;;
40284;SDS011;25997;50.214;19.354;2024-01-30T07:12:30;63.13;;;44.42;;
40284;SDS011;25997;50.214;19.354;2024-01-30T07:15:32;59.45;;;42.03;;
40284;SDS011;25997;50.214;19.354;2024-01-30T07:18:35;51.05;;;35.13;;
40284;SDS011;25997;50.214;19.354;2024-01-30T07:21:38;166.68;;;102.20;;
40284;SDS011;25997;50.214;19.354;2024-01-30T07:24:42;59.03;;;42.88;;
40284;SDS011;25997;50.214;19.354;2024-01-30T07:27:50;51.20;;;38.63;;
40284;SDS011;25997;50.214;19.354;2024-01-30T07:30:52;74.32;;;61.47;;
40284;SDS011;25997;50.214;19.354;2024-01-30T07:33:54;58.15;;;48.45;;
40284;SDS011;25997;50.214;19.354;2024-01-30T07:36:57;47.25;;;35.85;;
40284;SDS011;25997;50.214;19.354;2024-01-30T07:39:59;50.10;;;34.22;;
40284;SDS011;25997;50.214;19.354;2024-01-30T07:43:04;42.88;;;29.63;;
40284;SDS011;25997;50.214;19.354;2024-01-30T07:46:07;39.95;;;30.45;;
40284;SDS011;25997;50.214;19.354;2024-01-30T07:49:09;54.05;;;38.20;;
40284;SDS011;25997;50.214;19.354;2024-01-30T07:52:12;53.47;;;39.47;;
40284;SDS011;25997;50.214;19.354;2024-01-30T07:55:14;47.17;;;33.88;;
40284;SDS011;25997;50.214;19.354;2024-01-30T07:58:18;70.03;;;44.78;;
40284;SDS011;25997;50.214;19.354;2024-01-30T08:01:20;111.00;;;53.38;;
40284;SDS011;25997;50.214;19.354;2024-01-30T08:04:23;129.35;;;62.30;;
40284;SDS011;25997;50.214;19.354;2024-01-30T08:07:25;61.15;;;37.40;;
40284;SDS011;25997;50.214;19.354;2024-01-30T08:10:30;102.82;;;48.30;;
40284;SDS011;25997;50.214;19.354;2024-01-30T08:13:34;79.22;;;45.45;;
40284;SDS011;25997;50.214;19.354;2024-01-30T08:16:36;63.60;;;35.38;;
40284;SDS011;25997;50.214;19.354;2024-01-30T08:19:38;55.10;;;33.25;;
40284;SDS011;25997;50.214;19.354;2024-01-30T08:22:41;55.58;;;37.47;;
40284;SDS011;25997;50.214;19.354;2024-01-30T08:25:43;41.30;;;28.55;;
40284;SDS011;25997;50.214;19.354;2024-01-30T08:28:47;93.03;;;54.58;;
40284;SDS011;25997;50.214;19.354;2024-01-30T08:31:50;161.15;;;85.13;;
40284;SDS011;25997;50.214;19.354;2024-01-30T08:34:53;91.95;;;53.22;;
40284;SDS011;25997;50.214;19.354;2024-01-30T08:37:55;113.82;;;61.95;;
40284;SDS011;25997;50.214;19.354;2024-01-30T08:40:57;57.72;;;36.90;;
40284;SDS011;25997;50.214;19.354;2024-01-30T08:44:01;93.20;;;48.63;;
40284;SDS011;25997;50.214;19.354;2024-01-30T08:47:05;91.15;;;46.25;;
40284;SDS011;25997;50.214;19.354;2024-01-30T08:50:07;138.93;;;71.85;;
40284;SDS011;25997;50.214;19.354;2024-01-30T08:53:10;92.63;;;48.05;;
40284;SDS011;25997;50.214;19.354;2024-01-30T08:56:12;48.50;;;32.75;;
40284;SDS011;25997;50.214;19.354;2024-01-30T08:59:18;47.75;;;37.35;;
40284;SDS011;25997;50.214;19.354;2024-01-30T09:02:20;29.95;;;22.52;;
40284;SDS011;25997;50.214;19.354;2024-01-30T09:05:23;28.58;;;21.58;;
40284;SDS011;25997;50.214;19.354;2024-01-30T09:08:25;31.88;;;22.02;;
40284;SDS011;25997;50.214;19.354;2024-01-30T09:11:28;30.75;;;21.67;;
40284;SDS011;25997;50.214;19.354;2024-01-30T09:14:31;29.67;;;21.88;;
40284;SDS011;25997;50.214;19.354;2024-01-30T09:17:34;28.45;;;23.85;;
40284;SDS011;25997;50.214;19.354;2024-01-30T09:20:36;24.98;;;19.27;;
40284;SDS011;25997;50.214;19.354;2024-01-30T09:23:39;25.77;;;20.10;;
40284;SDS011;25997;50.214;19.354;2024-01-30T09:26:41;26.42;;;19.42;;
40284;SDS011;25997;50.214;19.354;2024-01-30T09:29:45;28.63;;;18.77;;
40284;SDS011;25997;50.214;19.354;2024-01-30T09:32:47;26.13;;;19.88;;
40284;SDS011;25997;50.214;19.354;2024-01-30T09:35:50;24.85;;;16.95;;
40284;SDS011;25997;50.214;19.354;2024-01-30T09:38:52;26.60;;;18.58;;
40284;SDS011;25997;50.214;19.354;2024-01-30T09:41:55;27.98;;;19.67;;
40284;SDS011;25997;50.214;19.354;2024-01-30T09:45:06;27.67;;;18.80;;
40284;SDS011;25997;50.214;19.354;2024-01-30T09:48:08;24.27;;;18.00;;
40284;SDS011;25997;50.214;19.354;2024-01-30T09:51:11;28.00;;;18.77;;
40284;SDS011;25997;50.214;19.354;2024-01-30T09:54:18;27.15;;;20.20;;
40284;SDS011;25997;50.214;19.354;2024-01-30T09:57:23;26.90;;;20.30;;
40284;SDS011;25997;50.214;19.354;2024-01-30T10:00:31;26.23;;;18.63;;
40284;SDS011;25997;50.214;19.354;2024-01-30T10:03:38;50.10;;;30.95;;
40284;SDS011;25997;50.214;19.354;2024-01-30T10:06:48;25.63;;;18.92;;
40284;SDS011;25997;50.214;19.354;2024-01-30T10:13:10;54.28;;;32.50;;
40284;SDS011;25997;50.214;19.354;2024-01-30T10:16:49;28.77;;;19.75;;
40284;SDS011;25997;50.214;19.354;2024-01-30T10:19:58;27.27;;;21.13;;
40284;SDS011;25997;50.214;19.354;2024-01-30T10:23:01;23.85;;;18.75;;
40284;SDS011;25997;50.214;19.354;2024-01-30T10:26:07;27.00;;;20.88;;
40284;SDS011;25997;50.214;19.354;2024-01-30T10:29:11;29.35;;;22.75;;
40284;SDS011;25997;50.214;19.354;2024-01-30T10:32:23;25.23;;;20.25;;
40284;SDS011;25997;50.214;19.354;2024-01-30T10:35:41;23.95;;;20.45;;
40284;SDS011;25997;50.214;19.354;2024-01-30T10:38:44;25.90;;;19.60;;
40284;SDS011;25997;50.214;19.354;2024-01-30T10:41:54;23.75;;;18.90;;
40284;SDS011;25997;50.214;19.354;2024-01-30T10:45:13;26.67;;;21.05;;
40284;SDS011;25997;50.214;19.354;2024-01-30T10:48:21;27.92;;;22.40;;
40284;SDS011;25997;50.214;19.354;2024-01-30T10:51:36;39.78;;;25.90;;
40284;SDS011;25997;50.214;19.354;2024-01-30T10:54:53;36.05;;;26.00;;
40284;SDS011;25997;50.214;19.354;2024-01-30T10:58:06;33.85;;;25.92;;
40284;SDS011;25997;50.214;19.354;2024-01-30T11:01:15;46.92;;;32.55;;
40284;SDS011;25997;50.214;19.354;2024-01-30T11:04:22;35.22;;;26.77;;
40284;SDS011;25997;50.214;19.354;2024-01-30T11:07:31;38.85;;;29.65;;
40284;SDS011;25997;50.214;19.354;2024-01-30T11:10:44;46.65;;;34.20;;
40284;SDS011;25997;50.214;19.354;2024-01-30T11:13:47;46.03;;;33.15;;
40284;SDS011;25997;50.214;19.354;2024-01-30T11:16:56;23.77;;;19.77;;
40284;SDS011;25997;50.214;19.354;2024-01-30T11:20:02;25.42;;;21.08;;
40284;SDS011;25997;50.214;19.354;2024-01-30T11:23:05;25.80;;;22.00;;
40284;SDS011;25997;50.214;19.354;2024-01-30T11:26:07;26.20;;;21.13;;
40284;SDS011;25997;50.214;19.354;2024-01-30T11:29:13;25.92;;;23.15;;
40284;SDS011;25997;50.214;19.354;2024-01-30T11:32:21;25.13;;;22.25;;
40284;SDS011;25997;50.214;19.354;2024-01-30T11:35:26;24.38;;;19.30;;
40284;SDS011;25997;50.214;19.354;2024-01-30T11:38:29;27.67;;;20.88;;
40284;SDS011;25997;50.214;19.354;2024-01-30T11:41:31;28.42;;;20.85;;
40284;SDS011;25997;50.214;19.354;2024-01-30T11:44:34;29.00;;;21.58;;
40284;SDS011;25997;50.214;19.354;2024-01-30T11:47:37;28.80;;;21.17;;
40284;SDS011;25997;50.214;19.354;2024-01-30T11:50:41;35.92;;;28.63;;
40284;SDS011;25997;50.214;19.354;2024-01-30T11:53:49;30.63;;;23.45;;
40284;SDS011;25997;50.214;19.354;2024-01-30T11:56:52;28.63;;;21.70;;
40284;SDS011;25997;50.214;19.354;2024-01-30T11:59:54;29.05;;;22.52;;
40284;SDS011;25997;50.214;19.354;2024-01-30T12:02:57;24.13;;;19.52;;
40284;SDS011;25997;50.214;19.354;2024-01-30T12:06:02;25.90;;;21.65;;
40284;SDS011;25997;50.214;19.354;2024-01-30T12:09:05;31.25;;;23.55;;
40284;SDS011;25997;50.214;19.354;2024-01-30T12:12:09;26.13;;;21.52;;
40284;SDS011;25997;50.214;19.354;2024-01-30T12:15:13;23.92;;;21.38;;
40284;SDS011;25997;50.214;19.354;2024-01-30T12:18:18;32.67;;;21.90;;
40284;SDS011;25997;50.214;19.354;2024-01-30T12:21:22;25.35;;;21.38;;
40284;SDS011;25997;50.214;19.354;2024-01-30T12:24:25;33.03;;;26.23;;
40284;SDS011;25997;50.214;19.354;2024-01-30T12:27:28;34.30;;;23.50;;
40284;SDS011;25997;50.214;19.354;2024-01-30T12:30:31;27.00;;;24.00;;
40284;SDS011;25997;50.214;19.354;2024-01-30T12:33:35;25.23;;;21.20;;
40284;SDS011;25997;50.214;19.354;2024-01-30T12:36:39;25.75;;;22.92;;
40284;SDS011;25997;50.214;19.354;2024-01-30T12:39:42;28.77;;;22.50;;
40284;SDS011;25997;50.214;19.354;2024-01-30T12:42:46;25.13;;;21.33;;
40284;SDS011;25997;50.214;19.354;2024-01-30T12:45:50;26.10;;;20.77;;
40284;SDS011;25997;50.214;19.354;2024-01-30T12:48:54;28.55;;;23.52;;
40284;SDS011;25997;50.214;19.354;2024-01-30T12:51:59;25.92;;;20.50;;
40284;SDS011;25997;50.214;19.354;2024-01-30T12:55:02;26.80;;;22.20;;
40284;SDS011;25997;50.214;19.354;2024-01-30T12:58:05;28.05;;;22.42;;
40284;SDS011;25997;50.214;19.354;2024-01-30T13:01:07;25.45;;;21.13;;
40284;SDS011;25997;50.214;19.354;2024-01-30T13:04:10;30.02;;;24.85;;
40284;SDS011;25997;50.214;19.354;2024-01-30T13:07:15;27.50;;;23.23;;
40284;SDS011;25997;50.214;19.354;2024-01-30T13:10:17;29.70;;;23.88;;
40284;SDS011;25997;50.214;19.354;2024-01-30T13:13:20;32.95;;;24.70;;
40284;SDS011;25997;50.214;19.354;2024-01-30T13:16:23;34.08;;;26.75;;
40284;SDS011;25997;50.214;19.354;2024-01-30T13:19:25;26.05;;;20.75;;
40284;SDS011;25997;50.214;19.354;2024-01-30T13:22:29;26.05;;;22.73;;
40284;SDS011;25997;50.214;19.354;2024-01-30T13:25:32;28.52;;;23.42;;
40284;SDS011;25997;50.214;19.354;2024-01-30T13:28:35;28.52;;;24.98;;
40284;SDS011;25997;50.214;19.354;2024-01-30T13:31:37;34.97;;;30.67;;
40284;SDS011;25997;50.214;19.354;2024-01-30T13:34:41;27.95;;;23.05;;
40284;SDS011;25997;50.214;19.354;2024-01-30T13:37:45;27.83;;;22.13;;
40284;SDS011;25997;50.214;19.354;2024-01-30T13:40:49;41.03;;;35.83;;
40284;SDS011;25997;50.214;19.354;2024-01-30T13:43:51;25.77;;;20.92;;
40284;SDS011;25997;50.214;19.354;2024-01-30T13:46:54;24.33;;;19.80;;
40284;SDS011;25997;50.214;19.354;2024-01-30T13:49:57;28.35;;;20.98;;
40284;SDS011;25997;50.214;19.354;2024-01-30T13:53:02;25.52;;;18.85;;
40284;SDS011;25997;50.214;19.354;2024-01-30T13:56:05;21.73;;;18.33;;
40284;SDS011;25997;50.214;19.354;2024-01-30T13:59:08;24.83;;;19.25;;
40284;SDS011;25997;50.214;19.354;2024-01-30T14:02:10;22.90;;;17.38;;
40284;SDS011;25997;50.214;19.354;2024-01-30T14:05:12;22.55;;;17.77;;
40284;SDS011;25997;50.214;19.354;2024-01-30T14:08:17;25.15;;;19.25;;
40284;SDS011;25997;50.214;19.354;2024-01-30T14:11:22;22.90;;;19.30;;
40284;SDS011;25997;50.214;19.354;2024-01-30T14:14:24;86.70;;;65.63;;
40284;SDS011;25997;50.214;19.354;2024-01-30T14:17:27;65.60;;;48.58;;
40284;SDS011;25997;50.214;19.354;2024-01-30T14:20:29;46.85;;;35.22;;
40284;SDS011;25997;50.214;19.354;2024-01-30T14:23:33;34.28;;;30.70;;
40284;SDS011;25997;50.214;19.354;2024-01-30T14:26:36;66.07;;;45.38;;
40284;SDS011;25997;50.214;19.354;2024-01-30T14:29:39;48.25;;;36.85;;
40284;SDS011;25997;50.214;19.354;2024-01-30T14:32:43;41.65;;;34.13;;
40284;SDS011;25997;50.214;19.354;2024-01-30T14:35:45;60.72;;;49.55;;
40284;SDS011;25997;50.214;19.354;2024-01-30T14:38:49;27.95;;;21.55;;
40284;SDS011;25997;50.214;19.354;2024-01-30T14:41:52;45.40;;;34.08;;
40284;SDS011;25997;50.214;19.354;2024-01-30T14:44:54;57.78;;;43.38;;
40284;SDS011;25997;50.214;19.354;2024-01-30T14:47:57;40.13;;;31.25;;
40284;SDS011;25997;50.214;19.354;2024-01-30T14:51:00;27.05;;;20.83;;
40284;SDS011;25997;50.214;19.354;2024-01-30T14:54:04;51.22;;;38.10;;
40284;SDS011;25997;50.214;19.354;2024-01-30T14:57:07;55.53;;;40.47;;
40284;SDS011;25997;50.214;19.354;2024-01-30T15:00:11;80.93;;;72.03;;
40284;SDS011;25997;50.214;19.354;2024-01-30T15:03:14;37.47;;;33.58;;
40284;SDS011;25997;50.214;19.354;2024-01-30T15:06:17;23.65;;;17.35;;
40284;SDS011;25997;50.214;19.354;2024-01-30T15:09:22;36.30;;;32.80;;
40284;SDS011;25997;50.214;19.354;2024-01-30T15:12:26;37.05;;;30.13;;
40284;SDS011;25997;50.214;19.354;2024-01-30T15:15:29;30.33;;;25.38;;
40284;SDS011;25997;50.214;19.354;2024-01-30T15:18:31;47.45;;;38.15;;
40284;SDS011;25997;50.214;19.354;2024-01-30T15:21:34;75.47;;;65.65;;
40284;SDS011;25997;50.214;19.354;2024-01-30T15:24:37;48.03;;;42.92;;
40284;SDS011;25997;50.214;19.354;2024-01-30T15:27:40;40.15;;;34.30;;
40284;SDS011;25997;50.214;19.354;2024-01-30T15:30:42;51.75;;;45.85;;
40284;SDS011;25997;50.214;19.354;2024-01-30T15:33:45;74.28;;;56.88;;
40284;SDS011;25997;50.214;19.354;2024-01-30T15:36:47;46.00;;;33.00;;
40284;SDS011;25997;50.214;19.354;2024-01-30T15:39:51;21.33;;;17.88;;
40284;SDS011;25997;50.214;19.354;2024-01-30T15:42:53;21.42;;;16.73;;
40284;SDS011;25997;50.214;19.354;2024-01-30T15:45:56;24.73;;;19.33;;
40284;SDS011;25997;50.214;19.354;2024-01-30T15:48:58;37.28;;;27.25;;
40284;SDS011;25997;50.214;19.354;2024-01-30T15:52:01;31.15;;;23.35;;
40284;SDS011;25997;50.214;19.354;2024-01-30T15:55:05;28.15;;;21.10;;
40284;SDS011;25997;50.214;19.354;2024-01-30T15:58:08;33.25;;;22.33;;
40284;SDS011;25997;50.214;19.354;2024-01-30T16:01:10;22.45;;;18.48;;
40284;SDS011;25997;50.214;19.354;2024-01-30T16:04:12;29.30;;;21.65;;
40284;SDS011;25997;50.214;19.354;2024-01-30T16:07:15;79.22;;;53.28;;
40284;SDS011;25997;50.214;19.354;2024-01-30T16:10:19;191.48;;;125.63;;
40284;SDS011;25997;50.214;19.354;2024-01-30T16:13:23;542.00;;;335.98;;
40284;SDS011;25997;50.214;19.354;2024-01-30T16:16:25;590.92;;;345.95;;
40284;SDS011;25997;50.214;19.354;2024-01-30T16:19:28;57.47;;;41.08;;
40284;SDS011;25997;50.214;19.354;2024-01-30T16:22:31;156.45;;;129.27;;
40284;SDS011;25997;50.214;19.354;2024-01-30T16:25:35;107.78;;;95.80;;
40284;SDS011;25997;50.214;19.354;2024-01-30T16:28:38;69.97;;;54.78;;
40284;SDS011;25997;50.214;19.354;2024-01-30T16:31:41;62.78;;;47.58;;
40284;SDS011;25997;50.214;19.354;2024-01-30T16:34:43;63.72;;;46.75;;
40284;SDS011;25997;50.214;19.354;2024-01-30T16:37:46;111.78;;;84.47;;
40284;SDS011;25997;50.214;19.354;2024-01-30T16:40:50;90.05;;;63.65;;
40284;SDS011;25997;50.214;19.354;2024-01-30T16:43:53;97.43;;;62.33;;
40284;SDS011;25997;50.214;19.354;2024-01-30T16:46:55;125.70;;;82.38;;
40284;SDS011;25997;50.214;19.354;2024-01-30T16:49:58;103.50;;;80.95;;
40284;SDS011;25997;50.214;19.354;2024-01-30T16:53:00;143.57;;;100.90;;
40284;SDS011;25997;50.214;19.354;2024-01-30T16:56:04;83.10;;;63.67;;
40284;SDS011;25997;50.214;19.354;2024-01-30T16:59:07;80.35;;;60.00;;
40284;SDS011;25997;50.214;19.354;2024-01-30T17:02:10;40.65;;;29.80;;
40284;SDS011;25997;50.214;19.354;2024-01-30T17:05:12;40.60;;;28.33;;
40284;SDS011;25997;50.214;19.354;2024-01-30T17:08:15;40.38;;;31.92;;
40284;SDS011;25997;50.214;19.354;2024-01-30T17:11:19;39.53;;;30.00;;
40284;SDS011;25997;50.214;19.354;2024-01-30T17:14:22;38.08;;;27.33;;
40284;SDS011;25997;50.214;19.354;2024-01-30T17:17:24;50.72;;;38.92;;
40284;SDS011;25997;50.214;19.354;2024-01-30T17:20:26;43.70;;;29.63;;
40284;SDS011;25997;50.214;19.354;2024-01-30T17:23:29;34.50;;;25.45;;
40284;SDS011;25997;50.214;19.354;2024-01-30T17:26:36;47.72;;;32.55;;
40284;SDS011;25997;50.214;19.354;2024-01-30T17:29:38;44.22;;;29.92;;
40284;SDS011;25997;50.214;19.354;2024-01-30T17:32:41;33.55;;;27.25;;
40284;SDS011;25997;50.214;19.354;2024-01-30T17:35:43;72.15;;;54.83;;
40284;SDS011;25997;50.214;19.354;2024-01-30T17:38:45;44.30;;;38.42;;
40284;SDS011;25997;50.214;19.354;2024-01-30T17:41:49;75.80;;;60.67;;